sensor_id;sensor_type;location;lat;lon;timestamp;temperature;humidity
19610;DHT22;9952;47.122;-1.638;2022-12-07T00:01:41;6.10;99.90
19610;DHT22;9952;47.122;-1.638;2022-12-07T00:06:22;6.10;99.90
19610;DHT22;9952;47.122;-1.638;2022-12-07T00:11:18;6.20;99.90
19610;DHT22;9952;47.122;-1.638;2022-12-07T00:16:07;6.20;99.90
19610;DHT22;9952;47.122;-1.638;2022-12-07T00:20:48;6.20;99.90
19610;DHT22;9952;47.122;-1.638;2022-12-07T00:25:30;6.30;99.90
19610;DHT22;9952;47.122;-1.638;2022-12-07T00:30:11;6.30;99.90
19610;DHT22;9952;47.122;-1.638;2022-12-07T00:34:52;6.30;99.90
19610;DHT22;9952;47.122;-1.638;2022-12-07T00:39:32;6.20;99.90
19610;DHT22;9952;47.122;-1.638;2022-12-07T00:44:13;6.20;99.90
19610;DHT22;9952;47.122;-1.638;2022-12-07T00:48:54;6.20;99.90
19610;DHT22;9952;47.122;-1.638;2022-12-07T00:53:36;6.10;99.90
19610;DHT22;9952;47.122;-1.638;2022-12-07T00:58:16;6.10;99.90
19610;DHT22;9952;47.122;-1.638;2022-12-07T01:02:59;6.10;99.90
19610;DHT22;9952;47.122;-1.638;2022-12-07T01:07:40;6.10;99.90
19610;DHT22;9952;47.122;-1.638;2022-12-07T01:12:21;6.20;99.90
19610;DHT22;9952;47.122;-1.638;2022-12-07T01:17:01;6.30;99.90
19610;DHT22;9952;47.122;-1.638;2022-12-07T01:21:42;6.30;99.90
19610;DHT22;9952;47.122;-1.638;2022-12-07T01:26:24;6.30;99.90
19610;DHT22;9952;47.122;-1.638;2022-12-07T01:31:08;6.10;99.90
19610;DHT22;9952;47.122;-1.638;2022-12-07T01:35:50;6.20;99.90
19610;DHT22;9952;47.122;-1.638;2022-12-07T01:40:31;6.20;99.90
19610;DHT22;9952;47.122;-1.638;2022-12-07T01:49:58;6.10;99.90
19610;DHT22;9952;47.122;-1.638;2022-12-07T01:54:39;6.20;99.90
19610;DHT22;9952;47.122;-1.638;2022-12-07T01:59:23;6.20;99.90
19610;DHT22;9952;47.122;-1.638;2022-12-07T02:04:06;6.20;99.90
19610;DHT22;9952;47.122;-1.638;2022-12-07T02:08:46;6.30;99.90
19610;DHT22;9952;47.122;-1.638;2022-12-07T02:13:32;6.20;99.90
19610;DHT22;9952;47.122;-1.638;2022-12-07T02:23:32;6.20;99.90
19610;DHT22;9952;47.122;-1.638;2022-12-07T02:28:29;6.10;99.90
19610;DHT22;9952;47.122;-1.638;2022-12-07T02:33:24;6.20;99.90
19610;DHT22;9952;47.122;-1.638;2022-12-07T02:43:24;6.20;99.90
19610;DHT22;9952;47.122;-1.638;2022-12-07T02:48:07;6.20;99.90
19610;DHT22;9952;47.122;-1.638;2022-12-07T02:52:49;6.10;99.90
19610;DHT22;9952;47.122;-1.638;2022-12-07T02:58:03;6.10;99.90
19610;DHT22;9952;47.122;-1.638;2022-12-07T03:12:21;6.10;99.90
19610;DHT22;9952;47.122;-1.638;2022-12-07T03:17:21;6.10;99.90
19610;DHT22;9952;47.122;-1.638;2022-12-07T03:22:07;6.10;99.90
19610;DHT22;9952;47.122;-1.638;2022-12-07T03:27:28;6.10;99.90
19610;DHT22;9952;47.122;-1.638;2022-12-07T03:32:06;6.10;99.90
19610;DHT22;9952;47.122;-1.638;2022-12-07T03:37:06;6.10;99.90
19610;DHT22;9952;47.122;-1.638;2022-12-07T03:41:50;6.20;99.90
19610;DHT22;9952;47.122;-1.638;2022-12-07T03:56:22;6.30;99.90
19610;DHT22;9952;47.122;-1.638;2022-12-07T04:01:04;6.20;99.90
19610;DHT22;9952;47.122;-1.638;2022-12-07T04:05:44;6.30;99.90
19610;DHT22;9952;47.122;-1.638;2022-12-07T04:10:26;6.20;99.90
19610;DHT22;9952;47.122;-1.638;2022-12-07T04:15:07;6.20;99.90
19610;DHT22;9952;47.122;-1.638;2022-12-07T04:19:48;6.20;99.90
19610;DHT22;9952;47.122;-1.638;2022-12-07T04:24:29;6.20;99.90
19610;DHT22;9952;47.122;-1.638;2022-12-07T04:29:10;6.30;99.90
19610;DHT22;9952;47.122;-1.638;2022-12-07T04:33:51;6.30;99.90
19610;DHT22;9952;47.122;-1.638;2022-12-07T04:38:32;6.20;99.90
19610;DHT22;9952;47.122;-1.638;2022-12-07T04:43:13;6.20;99.90
19610;DHT22;9952;47.122;-1.638;2022-12-07T04:47:53;6.30;99.90
19610;DHT22;9952;47.122;-1.638;2022-12-07T04:52:34;6.30;99.90
19610;DHT22;9952;47.122;-1.638;2022-12-07T04:57:15;6.20;99.90
19610;DHT22;9952;47.122;-1.638;2022-12-07T05:01:56;6.20;99.90
19610;DHT22;9952;47.122;-1.638;2022-12-07T05:06:37;6.10;99.90
19610;DHT22;9952;47.122;-1.638;2022-12-07T05:11:18;6.00;99.90
19610;DHT22;9952;47.122;-1.638;2022-12-07T05:16:17;6.10;99.90
19610;DHT22;9952;47.122;-1.638;2022-12-07T05:20:58;6.10;99.90
19610;DHT22;9952;47.122;-1.638;2022-12-07T05:25:39;6.10;99.90
19610;DHT22;9952;47.122;-1.638;2022-12-07T05:30:20;6.20;99.90
19610;DHT22;9952;47.122;-1.638;2022-12-07T05:35:00;6.10;99.90
19610;DHT22;9952;47.122;-1.638;2022-12-07T05:39:41;6.00;99.90
19610;DHT22;9952;47.122;-1.638;2022-12-07T05:44:23;6.10;99.90
19610;DHT22;9952;47.122;-1.638;2022-12-07T05:49:04;6.10;99.90
19610;DHT22;9952;47.122;-1.638;2022-12-07T05:53:45;6.20;99.90
19610;DHT22;9952;47.122;-1.638;2022-12-07T05:58:26;6.20;99.90
19610;DHT22;9952;47.122;-1.638;2022-12-07T06:03:25;6.20;99.90
19610;DHT22;9952;47.122;-1.638;2022-12-07T06:08:05;6.10;99.90
19610;DHT22;9952;47.122;-1.638;2022-12-07T06:12:46;6.10;99.90
19610;DHT22;9952;47.122;-1.638;2022-12-07T06:17:27;6.00;99.90
19610;DHT22;9952;47.122;-1.638;2022-12-07T06:22:08;6.10;99.90
19610;DHT22;9952;47.122;-1.638;2022-12-07T06:26:49;6.10;99.90
19610;DHT22;9952;47.122;-1.638;2022-12-07T06:31:30;6.00;99.90
19610;DHT22;9952;47.122;-1.638;2022-12-07T06:36:11;6.00;99.90
19610;DHT22;9952;47.122;-1.638;2022-12-07T06:40:52;6.00;99.90
19610;DHT22;9952;47.122;-1.638;2022-12-07T06:45:33;5.90;99.90
19610;DHT22;9952;47.122;-1.638;2022-12-07T06:50:13;5.80;99.90
19610;DHT22;9952;47.122;-1.638;2022-12-07T06:54:54;5.80;99.90
19610;DHT22;9952;47.122;-1.638;2022-12-07T06:59:35;5.50;99.90
19610;DHT22;9952;47.122;-1.638;2022-12-07T07:04:16;5.40;99.90
19610;DHT22;9952;47.122;-1.638;2022-12-07T07:08:56;5.20;99.90
19610;DHT22;9952;47.122;-1.638;2022-12-07T07:13:37;4.90;99.90
19610;DHT22;9952;47.122;-1.638;2022-12-07T07:18:18;4.80;99.90
19610;DHT22;9952;47.122;-1.638;2022-12-07T07:22:59;4.60;99.90
19610;DHT22;9952;47.122;-1.638;2022-12-07T07:27:40;4.50;99.90
19610;DHT22;9952;47.122;-1.638;2022-12-07T07:32:21;4.50;99.90
19610;DHT22;9952;47.122;-1.638;2022-12-07T07:37:03;4.50;99.90
19610;DHT22;9952;47.122;-1.638;2022-12-07T07:41:44;4.40;99.90
19610;DHT22;9952;47.122;-1.638;2022-12-07T07:46:25;4.50;99.90
19610;DHT22;9952;47.122;-1.638;2022-12-07T07:51:07;4.40;99.90
19610;DHT22;9952;47.122;-1.638;2022-12-07T07:55:52;4.30;99.90
19610;DHT22;9952;47.122;-1.638;2022-12-07T08:00:33;4.30;99.90
19610;DHT22;9952;47.122;-1.638;2022-12-07T08:05:13;4.20;99.90
19610;DHT22;9952;47.122;-1.638;2022-12-07T08:09:54;4.20;99.90
19610;DHT22;9952;47.122;-1.638;2022-12-07T08:14:35;4.20;99.90
19610;DHT22;9952;47.122;-1.638;2022-12-07T08:19:16;4.20;99.90
19610;DHT22;9952;47.122;-1.638;2022-12-07T08:23:57;4.20;99.90
19610;DHT22;9952;47.122;-1.638;2022-12-07T08:28:38;4.20;99.90
19610;DHT22;9952;47.122;-1.638;2022-12-07T08:33:19;4.10;99.90
19610;DHT22;9952;47.122;-1.638;2022-12-07T08:38:03;4.20;99.90
19610;DHT22;9952;47.122;-1.638;2022-12-07T08:42:48;4.10;99.90
19610;DHT22;9952;47.122;-1.638;2022-12-07T08:47:29;4.10;99.90
19610;DHT22;9952;47.122;-1.638;2022-12-07T08:52:11;4.10;99.90
19610;DHT22;9952;47.122;-1.638;2022-12-07T08:56:53;4.20;99.90
19610;DHT22;9952;47.122;-1.638;2022-12-07T09:01:35;4.10;99.90
19610;DHT22;9952;47.122;-1.638;2022-12-07T09:06:16;4.30;99.90
19610;DHT22;9952;47.122;-1.638;2022-12-07T09:10:57;4.30;99.90
19610;DHT22;9952;47.122;-1.638;2022-12-07T09:15:38;4.40;99.90
19610;DHT22;9952;47.122;-1.638;2022-12-07T09:20:19;4.50;99.90
19610;DHT22;9952;47.122;-1.638;2022-12-07T09:25:00;4.50;99.90
19610;DHT22;9952;47.122;-1.638;2022-12-07T09:29:41;4.40;99.90
19610;DHT22;9952;47.122;-1.638;2022-12-07T09:34:22;4.40;99.90
19610;DHT22;9952;47.122;-1.638;2022-12-07T09:39:03;4.50;99.90
19610;DHT22;9952;47.122;-1.638;2022-12-07T09:43:45;4.50;99.90
19610;DHT22;9952;47.122;-1.638;2022-12-07T09:48:34;4.50;99.90
19610;DHT22;9952;47.122;-1.638;2022-12-07T09:53:38;4.60;99.90
19610;DHT22;9952;47.122;-1.638;2022-12-07T09:58:27;4.50;99.90
19610;DHT22;9952;47.122;-1.638;2022-12-07T10:03:09;4.60;99.90
19610;DHT22;9952;47.122;-1.638;2022-12-07T10:07:52;4.60;99.90
19610;DHT22;9952;47.122;-1.638;2022-12-07T10:12:57;4.60;99.90
19610;DHT22;9952;47.122;-1.638;2022-12-07T10:17:39;4.60;99.90
19610;DHT22;9952;47.122;-1.638;2022-12-07T10:22:21;4.60;99.90
19610;DHT22;9952;47.122;-1.638;2022-12-07T10:27:02;4.40;99.90
19610;DHT22;9952;47.122;-1.638;2022-12-07T10:31:45;4.50;99.90
19610;DHT22;9952;47.122;-1.638;2022-12-07T10:41:14;5.40;99.90
19610;DHT22;9952;47.122;-1.638;2022-12-07T10:51:09;5.60;99.90
19610;DHT22;9952;47.122;-1.638;2022-12-07T11:00:56;5.80;99.90
19610;DHT22;9952;47.122;-1.638;2022-12-07T11:05:45;5.80;99.90
19610;DHT22;9952;47.122;-1.638;2022-12-07T11:10:57;6.00;99.90
19610;DHT22;9952;47.122;-1.638;2022-12-07T11:16:02;6.10;99.90
19610;DHT22;9952;47.122;-1.638;2022-12-07T11:36:41;6.70;99.90
19610;DHT22;9952;47.122;-1.638;2022-12-07T11:41:45;6.90;99.90
19610;DHT22;9952;47.122;-1.638;2022-12-07T11:46:49;7.00;99.90
19610;DHT22;9952;47.122;-1.638;2022-12-07T11:51:36;7.00;99.90
19610;DHT22;9952;47.122;-1.638;2022-12-07T11:56:23;7.10;99.90
19610;DHT22;9952;47.122;-1.638;2022-12-07T12:06:02;7.20;99.90
19610;DHT22;9952;47.122;-1.638;2022-12-07T12:25:28;7.40;99.90
19610;DHT22;9952;47.122;-1.638;2022-12-07T12:50:19;7.70;99.90
19610;DHT22;9952;47.122;-1.638;2022-12-07T13:04:48;7.90;99.90
19610;DHT22;9952;47.122;-1.638;2022-12-07T13:09:32;7.90;99.90
19610;DHT22;9952;47.122;-1.638;2022-12-07T13:24:21;8.00;99.90
19610;DHT22;9952;47.122;-1.638;2022-12-07T13:29:12;8.00;99.90
19610;DHT22;9952;47.122;-1.638;2022-12-07T13:33:53;8.00;99.90
19610;DHT22;9952;47.122;-1.638;2022-12-07T13:38:35;8.10;99.90
19610;DHT22;9952;47.122;-1.638;2022-12-07T13:43:17;8.20;99.90
19610;DHT22;9952;47.122;-1.638;2022-12-07T13:47:59;8.10;99.90
19610;DHT22;9952;47.122;-1.638;2022-12-07T13:52:44;8.10;99.90
19610;DHT22;9952;47.122;-1.638;2022-12-07T13:57:27;8.00;99.90
19610;DHT22;9952;47.122;-1.638;2022-12-07T14:02:20;8.00;99.90
19610;DHT22;9952;47.122;-1.638;2022-12-07T14:07:25;7.90;99.90
19610;DHT22;9952;47.122;-1.638;2022-12-07T14:12:06;7.90;99.90
19610;DHT22;9952;47.122;-1.638;2022-12-07T14:17:02;7.90;99.90
19610;DHT22;9952;47.122;-1.638;2022-12-07T14:22:06;7.90;99.90
19610;DHT22;9952;47.122;-1.638;2022-12-07T14:26:49;7.70;99.90
19610;DHT22;9952;47.122;-1.638;2022-12-07T14:31:32;7.60;99.90
19610;DHT22;9952;47.122;-1.638;2022-12-07T14:36:14;7.70;99.90
19610;DHT22;9952;47.122;-1.638;2022-12-07T14:40:56;7.70;99.90
19610;DHT22;9952;47.122;-1.638;2022-12-07T14:45:57;7.70;99.90
19610;DHT22;9952;47.122;-1.638;2022-12-07T14:50:44;7.50;99.90
19610;DHT22;9952;47.122;-1.638;2022-12-07T14:55:28;7.50;99.90
19610;DHT22;9952;47.122;-1.638;2022-12-07T15:00:14;7.50;99.90
19610;DHT22;9952;47.122;-1.638;2022-12-07T15:04:55;7.40;99.90
19610;DHT22;9952;47.122;-1.638;2022-12-07T15:09:36;7.40;99.90
19610;DHT22;9952;47.122;-1.638;2022-12-07T15:14:16;7.30;99.90
19610;DHT22;9952;47.122;-1.638;2022-12-07T15:18:57;7.30;99.90
19610;DHT22;9952;47.122;-1.638;2022-12-07T15:23:38;7.10;99.90
19610;DHT22;9952;47.122;-1.638;2022-12-07T15:28:19;7.00;99.90
19610;DHT22;9952;47.122;-1.638;2022-12-07T15:33:00;6.90;99.90
19610;DHT22;9952;47.122;-1.638;2022-12-07T15:37:41;6.90;99.90
19610;DHT22;9952;47.122;-1.638;2022-12-07T15:42:22;6.60;99.90
19610;DHT22;9952;47.122;-1.638;2022-12-07T15:47:04;6.50;99.90
19610;DHT22;9952;47.122;-1.638;2022-12-07T15:51:45;6.50;99.90
19610;DHT22;9952;47.122;-1.638;2022-12-07T15:56:26;6.50;99.90
19610;DHT22;9952;47.122;-1.638;2022-12-07T16:01:14;6.40;99.90
19610;DHT22;9952;47.122;-1.638;2022-12-07T16:05:55;6.40;99.90
19610;DHT22;9952;47.122;-1.638;2022-12-07T16:10:36;6.30;99.90
19610;DHT22;9952;47.122;-1.638;2022-12-07T16:15:17;6.10;99.90
19610;DHT22;9952;47.122;-1.638;2022-12-07T16:19:58;6.10;99.90
19610;DHT22;9952;47.122;-1.638;2022-12-07T16:24:38;6.10;99.90
19610;DHT22;9952;47.122;-1.638;2022-12-07T16:29:20;5.90;99.90
19610;DHT22;9952;47.122;-1.638;2022-12-07T16:34:01;5.90;99.90
19610;DHT22;9952;47.122;-1.638;2022-12-07T16:38:43;5.80;99.90
19610;DHT22;9952;47.122;-1.638;2022-12-07T16:43:23;5.80;99.90
19610;DHT22;9952;47.122;-1.638;2022-12-07T16:48:04;5.70;99.90
19610;DHT22;9952;47.122;-1.638;2022-12-07T16:52:45;5.50;99.90
19610;DHT22;9952;47.122;-1.638;2022-12-07T16:57:26;5.40;99.90
19610;DHT22;9952;47.122;-1.638;2022-12-07T17:02:10;5.50;99.90
19610;DHT22;9952;47.122;-1.638;2022-12-07T17:06:51;5.40;99.90
19610;DHT22;9952;47.122;-1.638;2022-12-07T17:11:32;5.20;99.90
19610;DHT22;9952;47.122;-1.638;2022-12-07T17:16:13;5.20;99.90
19610;DHT22;9952;47.122;-1.638;2022-12-07T17:20:54;5.00;99.90
19610;DHT22;9952;47.122;-1.638;2022-12-07T17:25:35;5.00;99.90
19610;DHT22;9952;47.122;-1.638;2022-12-07T17:30:16;5.00;99.90
19610;DHT22;9952;47.122;-1.638;2022-12-07T17:34:57;4.90;99.90
19610;DHT22;9952;47.122;-1.638;2022-12-07T17:39:38;4.80;99.90
19610;DHT22;9952;47.122;-1.638;2022-12-07T17:44:19;4.80;99.90
19610;DHT22;9952;47.122;-1.638;2022-12-07T17:49:01;4.80;99.90
19610;DHT22;9952;47.122;-1.638;2022-12-07T17:53:42;4.80;99.90
19610;DHT22;9952;47.122;-1.638;2022-12-07T17:58:23;4.60;99.90
19610;DHT22;9952;47.122;-1.638;2022-12-07T18:03:05;4.60;99.90
19610;DHT22;9952;47.122;-1.638;2022-12-07T18:07:46;4.50;99.90
19610;DHT22;9952;47.122;-1.638;2022-12-07T18:12:27;4.50;99.90
19610;DHT22;9952;47.122;-1.638;2022-12-07T18:17:08;4.50;99.90
19610;DHT22;9952;47.122;-1.638;2022-12-07T18:21:49;4.40;99.90
19610;DHT22;9952;47.122;-1.638;2022-12-07T18:26:32;4.40;99.90
19610;DHT22;9952;47.122;-1.638;2022-12-07T18:31:15;4.40;99.90
19610;DHT22;9952;47.122;-1.638;2022-12-07T18:35:58;4.40;99.90
19610;DHT22;9952;47.122;-1.638;2022-12-07T18:40:40;4.30;99.90
19610;DHT22;9952;47.122;-1.638;2022-12-07T18:45:21;4.10;99.90
19610;DHT22;9952;47.122;-1.638;2022-12-07T18:50:02;4.10;99.90
19610;DHT22;9952;47.122;-1.638;2022-12-07T18:54:43;4.20;99.90
19610;DHT22;9952;47.122;-1.638;2022-12-07T18:59:24;4.20;99.90
19610;DHT22;9952;47.122;-1.638;2022-12-07T19:04:24;4.10;99.90
19610;DHT22;9952;47.122;-1.638;2022-12-07T19:09:04;4.10;99.90
19610;DHT22;9952;47.122;-1.638;2022-12-07T19:13:45;4.00;99.90
19610;DHT22;9952;47.122;-1.638;2022-12-07T19:18:26;4.00;99.90
19610;DHT22;9952;47.122;-1.638;2022-12-07T19:23:07;3.90;99.90
19610;DHT22;9952;47.122;-1.638;2022-12-07T19:27:48;4.10;99.90
19610;DHT22;9952;47.122;-1.638;2022-12-07T19:32:28;3.90;99.90
19610;DHT22;9952;47.122;-1.638;2022-12-07T19:37:11;4.00;99.90
19610;DHT22;9952;47.122;-1.638;2022-12-07T19:41:52;3.90;99.90
19610;DHT22;9952;47.122;-1.638;2022-12-07T19:46:33;4.00;99.90
19610;DHT22;9952;47.122;-1.638;2022-12-07T19:51:14;3.90;99.90
19610;DHT22;9952;47.122;-1.638;2022-12-07T19:55:55;3.80;99.90
19610;DHT22;9952;47.122;-1.638;2022-12-07T20:00:36;3.70;99.90
19610;DHT22;9952;47.122;-1.638;2022-12-07T20:05:17;3.60;99.90
19610;DHT22;9952;47.122;-1.638;2022-12-07T20:09:58;3.50;99.90
19610;DHT22;9952;47.122;-1.638;2022-12-07T20:14:38;3.50;99.90
19610;DHT22;9952;47.122;-1.638;2022-12-07T20:19:20;3.50;99.90
19610;DHT22;9952;47.122;-1.638;2022-12-07T20:24:02;3.40;99.90
19610;DHT22;9952;47.122;-1.638;2022-12-07T20:28:43;3.30;99.90
19610;DHT22;9952;47.122;-1.638;2022-12-07T20:33:26;3.20;99.90
19610;DHT22;9952;47.122;-1.638;2022-12-07T20:38:08;3.20;99.90
19610;DHT22;9952;47.122;-1.638;2022-12-07T20:42:49;3.20;99.90
19610;DHT22;9952;47.122;-1.638;2022-12-07T20:47:31;3.20;99.90
19610;DHT22;9952;47.122;-1.638;2022-12-07T20:52:15;3.10;99.90
19610;DHT22;9952;47.122;-1.638;2022-12-07T20:56:57;3.10;99.90
19610;DHT22;9952;47.122;-1.638;2022-12-07T21:01:37;3.20;99.90
19610;DHT22;9952;47.122;-1.638;2022-12-07T21:06:19;3.20;99.90
19610;DHT22;9952;47.122;-1.638;2022-12-07T21:11:06;3.20;99.90
19610;DHT22;9952;47.122;-1.638;2022-12-07T21:15:48;3.20;99.90
19610;DHT22;9952;47.122;-1.638;2022-12-07T21:20:28;3.10;99.90
19610;DHT22;9952;47.122;-1.638;2022-12-07T21:25:09;3.10;99.90
19610;DHT22;9952;47.122;-1.638;2022-12-07T21:29:50;3.00;99.90
19610;DHT22;9952;47.122;-1.638;2022-12-07T21:34:31;3.00;99.90
19610;DHT22;9952;47.122;-1.638;2022-12-07T21:39:12;3.10;99.90
19610;DHT22;9952;47.122;-1.638;2022-12-07T21:43:53;3.00;99.90
19610;DHT22;9952;47.122;-1.638;2022-12-07T21:48:34;2.90;99.90
19610;DHT22;9952;47.122;-1.638;2022-12-07T21:53:15;2.90;99.90
19610;DHT22;9952;47.122;-1.638;2022-12-07T21:57:56;2.80;99.90
19610;DHT22;9952;47.122;-1.638;2022-12-07T22:02:37;2.70;99.90
19610;DHT22;9952;47.122;-1.638;2022-12-07T22:07:18;2.80;99.90
19610;DHT22;9952;47.122;-1.638;2022-12-07T22:11:59;2.70;99.90
19610;DHT22;9952;47.122;-1.638;2022-12-07T22:16:55;2.70;99.90
19610;DHT22;9952;47.122;-1.638;2022-12-07T22:39:41;2.60;99.90
19610;DHT22;9952;47.122;-1.638;2022-12-07T22:44:31;2.50;99.90
19610;DHT22;9952;47.122;-1.638;2022-12-07T22:49:39;2.40;99.90
19610;DHT22;9952;47.122;-1.638;2022-12-07T22:55:06;2.40;99.90
19610;DHT22;9952;47.122;-1.638;2022-12-07T22:59:58;2.30;99.90
19610;DHT22;9952;47.122;-1.638;2022-12-07T23:04:39;2.30;99.90
19610;DHT22;9952;47.122;-1.638;2022-12-07T23:09:30;2.20;99.90
19610;DHT22;9952;47.122;-1.638;2022-12-07T23:14:35;2.20;99.90
19610;DHT22;9952;47.122;-1.638;2022-12-07T23:19:19;2.20;99.90
19610;DHT22;9952;47.122;-1.638;2022-12-07T23:24:12;2.10;99.90
19610;DHT22;9952;47.122;-1.638;2022-12-07T23:28:58;2.00;99.90
19610;DHT22;9952;47.122;-1.638;2022-12-07T23:33:40;2.00;99.90
19610;DHT22;9952;47.122;-1.638;2022-12-07T23:38:27;2.00;99.90
19610;DHT22;9952;47.122;-1.638;2022-12-07T23:43:10;2.00;99.90
19610;DHT22;9952;47.122;-1.638;2022-12-07T23:47:54;2.00;99.90
19610;DHT22;9952;47.122;-1.638;2022-12-07T23:52:40;2.00;99.90
19610;DHT22;9952;47.122;-1.638;2022-12-07T23:57:24;1.90;99.90
